sensor_id;sensor_type;location;lat;lon;timestamp;P1;durP1;ratioP1;P2;durP2;ratioP2
78205;SDS011;67480;48.920;12.880;2023-07-02T00:02:13;4.22;;;1.35;;
78205;SDS011;67480;48.920;12.880;2023-07-02T00:04:38;1.67;;;1.10;;
78205;SDS011;67480;48.920;12.880;2023-07-02T00:07:04;1.48;;;1.10;;
78205;SDS011;67480;48.920;12.880;2023-07-02T00:09:29;1.35;;;1.15;;
78205;SDS011;67480;48.920;12.880;2023-07-02T00:11:55;1.95;;;1.10;;
78205;SDS011;67480;48.920;12.880;2023-07-02T00:14:20;1.02;;;0.93;;
78205;SDS011;67480;48.920;12.880;2023-07-02T00:16:46;1.52;;;1.13;;
78205;SDS011;67480;48.920;12.880;2023-07-02T00:19:13;0.85;;;0.85;;
78205;SDS011;67480;48.920;12.880;2023-07-02T00:21:39;0.90;;;0.90;;
78205;SDS011;67480;48.920;12.880;2023-07-02T00:24:05;1.30;;;1.10;;
78205;SDS011;67480;48.920;12.880;2023-07-02T00:26:31;1.23;;;1.13;;
78205;SDS011;67480;48.920;12.880;2023-07-02T00:28:56;9.73;;;1.23;;
78205;SDS011;67480;48.920;12.880;2023-07-02T00:31:22;2.08;;;1.27;;
78205;SDS011;67480;48.920;12.880;2023-07-02T00:33:48;1.15;;;1.05;;
78205;SDS011;67480;48.920;12.880;2023-07-02T00:36:14;1.38;;;1.27;;
78205;SDS011;67480;48.920;12.880;2023-07-02T00:38:40;1.02;;;1.00;;
78205;SDS011;67480;48.920;12.880;2023-07-02T00:41:07;2.25;;;1.38;;
78205;SDS011;67480;48.920;12.880;2023-07-02T00:43:33;1.23;;;0.95;;
78205;SDS011;67480;48.920;12.880;2023-07-02T00:45:58;1.55;;;1.23;;
78205;SDS011;67480;48.920;12.880;2023-07-02T00:48:24;2.08;;;1.02;;
78205;SDS011;67480;48.920;12.880;2023-07-02T00:50:49;1.50;;;1.10;;
78205;SDS011;67480;48.920;12.880;2023-07-02T00:53:15;1.80;;;1.02;;
78205;SDS011;67480;48.920;12.880;2023-07-02T00:55:40;1.50;;;1.17;;
78205;SDS011;67480;48.920;12.880;2023-07-02T00:58:05;2.67;;;0.98;;
78205;SDS011;67480;48.920;12.880;2023-07-02T01:00:31;1.15;;;1.00;;
78205;SDS011;67480;48.920;12.880;2023-07-02T01:02:57;1.38;;;0.95;;
78205;SDS011;67480;48.920;12.880;2023-07-02T01:05:24;3.08;;;0.90;;
78205;SDS011;67480;48.920;12.880;2023-07-02T01:08:04;3.10;;;1.00;;
78205;SDS011;67480;48.920;12.880;2023-07-02T01:10:33;4.65;;;1.00;;
78205;SDS011;67480;48.920;12.880;2023-07-02T01:13:00;1.23;;;1.13;;
78205;SDS011;67480;48.920;12.880;2023-07-02T01:15:29;1.40;;;1.20;;
78205;SDS011;67480;48.920;12.880;2023-07-02T01:17:55;1.67;;;1.50;;
78205;SDS011;67480;48.920;12.880;2023-07-02T01:20:21;1.33;;;1.20;;
78205;SDS011;67480;48.920;12.880;2023-07-02T01:22:48;1.17;;;1.08;;
78205;SDS011;67480;48.920;12.880;2023-07-02T01:25:16;1.30;;;1.20;;
78205;SDS011;67480;48.920;12.880;2023-07-02T01:27:42;2.00;;;1.80;;
78205;SDS011;67480;48.920;12.880;2023-07-02T01:30:08;1.88;;;1.60;;
78205;SDS011;67480;48.920;12.880;2023-07-02T01:32:34;2.67;;;1.42;;
78205;SDS011;67480;48.920;12.880;2023-07-02T01:35:00;1.95;;;1.85;;
78205;SDS011;67480;48.920;12.880;2023-07-02T01:37:25;1.67;;;1.58;;
78205;SDS011;67480;48.920;12.880;2023-07-02T01:39:51;1.70;;;1.60;;
78205;SDS011;67480;48.920;12.880;2023-07-02T01:42:17;3.72;;;2.78;;
78205;SDS011;67480;48.920;12.880;2023-07-02T01:44:44;2.05;;;1.92;;
78205;SDS011;67480;48.920;12.880;2023-07-02T01:47:10;2.90;;;2.70;;
78205;SDS011;67480;48.920;12.880;2023-07-02T01:49:36;2.75;;;2.55;;
78205;SDS011;67480;48.920;12.880;2023-07-02T01:52:03;3.10;;;2.85;;
78205;SDS011;67480;48.920;12.880;2023-07-02T01:54:29;2.50;;;2.30;;
78205;SDS011;67480;48.920;12.880;2023-07-02T01:56:55;2.28;;;1.90;;
78205;SDS011;67480;48.920;12.880;2023-07-02T01:59:21;2.40;;;2.20;;
78205;SDS011;67480;48.920;12.880;2023-07-02T02:01:47;1.80;;;1.70;;
78205;SDS011;67480;48.920;12.880;2023-07-02T02:04:12;2.28;;;1.58;;
78205;SDS011;67480;48.920;12.880;2023-07-02T02:06:38;2.28;;;2.17;;
78205;SDS011;67480;48.920;12.880;2023-07-02T02:09:04;2.13;;;1.92;;
78205;SDS011;67480;48.920;12.880;2023-07-02T02:11:31;3.63;;;1.80;;
78205;SDS011;67480;48.920;12.880;2023-07-02T02:13:57;2.45;;;1.73;;
78205;SDS011;67480;48.920;12.880;2023-07-02T02:16:23;1.65;;;1.55;;
78205;SDS011;67480;48.920;12.880;2023-07-02T02:18:49;1.83;;;1.58;;
78205;SDS011;67480;48.920;12.880;2023-07-02T02:21:17;1.95;;;1.83;;
78205;SDS011;67480;48.920;12.880;2023-07-02T02:23:42;2.35;;;2.15;;
78205;SDS011;67480;48.920;12.880;2023-07-02T02:26:08;2.60;;;2.40;;
78205;SDS011;67480;48.920;12.880;2023-07-02T02:28:33;3.00;;;2.80;;
78205;SDS011;67480;48.920;12.880;2023-07-02T02:30:58;2.53;;;2.25;;
78205;SDS011;67480;48.920;12.880;2023-07-02T02:33:24;3.55;;;3.25;;
78205;SDS011;67480;48.920;12.880;2023-07-02T02:35:49;3.42;;;3.22;;
78205;SDS011;67480;48.920;12.880;2023-07-02T02:38:14;3.40;;;3.10;;
78205;SDS011;67480;48.920;12.880;2023-07-02T02:40:40;2.92;;;2.38;;
78205;SDS011;67480;48.920;12.880;2023-07-02T02:43:05;3.33;;;3.13;;
78205;SDS011;67480;48.920;12.880;2023-07-02T02:45:30;3.40;;;3.10;;
78205;SDS011;67480;48.920;12.880;2023-07-02T02:47:56;5.68;;;3.60;;
78205;SDS011;67480;48.920;12.880;2023-07-02T02:50:21;3.92;;;3.50;;
78205;SDS011;67480;48.920;12.880;2023-07-02T02:52:46;5.13;;;3.70;;
78205;SDS011;67480;48.920;12.880;2023-07-02T02:55:12;3.10;;;2.85;;
78205;SDS011;67480;48.920;12.880;2023-07-02T02:57:37;5.82;;;5.07;;
78205;SDS011;67480;48.920;12.880;2023-07-02T03:00:03;4.85;;;3.80;;
78205;SDS011;67480;48.920;12.880;2023-07-02T03:02:29;4.70;;;3.55;;
78205;SDS011;67480;48.920;12.880;2023-07-02T03:04:55;5.10;;;4.10;;
78205;SDS011;67480;48.920;12.880;2023-07-02T03:07:22;4.03;;;3.65;;
78205;SDS011;67480;48.920;12.880;2023-07-02T03:09:47;5.30;;;4.40;;
78205;SDS011;67480;48.920;12.880;2023-07-02T03:12:14;6.85;;;5.60;;
78205;SDS011;67480;48.920;12.880;2023-07-02T03:14:42;4.88;;;4.45;;
78205;SDS011;67480;48.920;12.880;2023-07-02T03:17:09;4.43;;;4.03;;
78205;SDS011;67480;48.920;12.880;2023-07-02T03:19:36;5.50;;;4.10;;
78205;SDS011;67480;48.920;12.880;2023-07-02T03:22:03;4.70;;;3.72;;
78205;SDS011;67480;48.920;12.880;2023-07-02T03:24:57;4.85;;;4.45;;
78205;SDS011;67480;48.920;12.880;2023-07-02T03:28:11;5.82;;;5.22;;
78205;SDS011;67480;48.920;12.880;2023-07-02T03:31:16;5.22;;;4.72;;
78205;SDS011;67480;48.920;12.880;2023-07-02T03:34:06;6.22;;;4.05;;
78205;SDS011;67480;48.920;12.880;2023-07-02T03:37:07;4.75;;;4.35;;
78205;SDS011;67480;48.920;12.880;2023-07-02T03:39:45;5.30;;;4.90;;
78205;SDS011;67480;48.920;12.880;2023-07-02T03:42:19;5.50;;;4.22;;
78205;SDS011;67480;48.920;12.880;2023-07-02T03:44:57;5.05;;;4.35;;
78205;SDS011;67480;48.920;12.880;2023-07-02T03:47:45;5.88;;;4.57;;
78205;SDS011;67480;48.920;12.880;2023-07-02T03:50:33;4.20;;;3.80;;
78205;SDS011;67480;48.920;12.880;2023-07-02T03:53:00;5.85;;;3.75;;
78205;SDS011;67480;48.920;12.880;2023-07-02T03:55:29;5.15;;;3.72;;
78205;SDS011;67480;48.920;12.880;2023-07-02T03:57:56;4.13;;;3.50;;
78205;SDS011;67480;48.920;12.880;2023-07-02T04:00:26;4.75;;;4.35;;
78205;SDS011;67480;48.920;12.880;2023-07-02T04:02:55;5.57;;;4.10;;
78205;SDS011;67480;48.920;12.880;2023-07-02T04:05:22;3.67;;;3.25;;
78205;SDS011;67480;48.920;12.880;2023-07-02T04:07:50;4.10;;;3.65;;
78205;SDS011;67480;48.920;12.880;2023-07-02T04:10:20;4.30;;;3.90;;
78205;SDS011;67480;48.920;12.880;2023-07-02T04:12:47;5.75;;;5.22;;
78205;SDS011;67480;48.920;12.880;2023-07-02T04:15:14;4.78;;;4.00;;
78205;SDS011;67480;48.920;12.880;2023-07-02T04:17:42;3.50;;;3.20;;
78205;SDS011;67480;48.920;12.880;2023-07-02T04:20:11;3.97;;;3.67;;
78205;SDS011;67480;48.920;12.880;2023-07-02T04:22:38;3.88;;;3.53;;
78205;SDS011;67480;48.920;12.880;2023-07-02T04:25:05;5.72;;;4.13;;
78205;SDS011;67480;48.920;12.880;2023-07-02T04:27:32;7.32;;;6.63;;
78205;SDS011;67480;48.920;12.880;2023-07-02T04:30:00;3.92;;;3.63;;
78205;SDS011;67480;48.920;12.880;2023-07-02T04:32:28;5.43;;;3.28;;
78205;SDS011;67480;48.920;12.880;2023-07-02T04:34:54;3.88;;;3.47;;
78205;SDS011;67480;48.920;12.880;2023-07-02T04:37:25;6.22;;;3.70;;
78205;SDS011;67480;48.920;12.880;2023-07-02T04:39:54;5.53;;;4.88;;
78205;SDS011;67480;48.920;12.880;2023-07-02T04:42:21;5.00;;;3.72;;
78205;SDS011;67480;48.920;12.880;2023-07-02T04:44:46;3.20;;;2.90;;
78205;SDS011;67480;48.920;12.880;2023-07-02T04:47:12;3.17;;;2.60;;
78205;SDS011;67480;48.920;12.880;2023-07-02T04:49:38;5.25;;;3.05;;
78205;SDS011;67480;48.920;12.880;2023-07-02T04:52:04;4.10;;;3.50;;
78205;SDS011;67480;48.920;12.880;2023-07-02T04:54:31;5.25;;;2.80;;
78205;SDS011;67480;48.920;12.880;2023-07-02T04:56:56;6.20;;;5.45;;
78205;SDS011;67480;48.920;12.880;2023-07-02T04:59:24;5.07;;;4.57;;
78205;SDS011;67480;48.920;12.880;2023-07-02T05:01:49;3.65;;;3.35;;
78205;SDS011;67480;48.920;12.880;2023-07-02T05:04:15;14.10;;;11.23;;
78205;SDS011;67480;48.920;12.880;2023-07-02T05:06:40;5.38;;;3.75;;
78205;SDS011;67480;48.920;12.880;2023-07-02T05:09:06;5.65;;;4.50;;
78205;SDS011;67480;48.920;12.880;2023-07-02T05:11:31;6.13;;;5.38;;
78205;SDS011;67480;48.920;12.880;2023-07-02T05:13:56;3.80;;;3.22;;
78205;SDS011;67480;48.920;12.880;2023-07-02T05:16:22;4.50;;;3.15;;
78205;SDS011;67480;48.920;12.880;2023-07-02T05:18:47;3.80;;;3.42;;
78205;SDS011;67480;48.920;12.880;2023-07-02T05:21:12;6.38;;;3.60;;
78205;SDS011;67480;48.920;12.880;2023-07-02T05:23:38;5.60;;;4.00;;
78205;SDS011;67480;48.920;12.880;2023-07-02T05:26:03;5.32;;;3.50;;
78205;SDS011;67480;48.920;12.880;2023-07-02T05:28:29;4.18;;;3.78;;
78205;SDS011;67480;48.920;12.880;2023-07-02T05:30:54;4.28;;;2.88;;
78205;SDS011;67480;48.920;12.880;2023-07-02T05:33:20;4.63;;;3.30;;
78205;SDS011;67480;48.920;12.880;2023-07-02T05:35:47;4.13;;;3.60;;
78205;SDS011;67480;48.920;12.880;2023-07-02T05:38:12;4.07;;;3.15;;
78205;SDS011;67480;48.920;12.880;2023-07-02T05:40:38;4.65;;;2.40;;
78205;SDS011;67480;48.920;12.880;2023-07-02T05:43:05;4.47;;;2.53;;
78205;SDS011;67480;48.920;12.880;2023-07-02T05:45:31;3.95;;;3.03;;
78205;SDS011;67480;48.920;12.880;2023-07-02T05:47:56;3.50;;;3.20;;
78205;SDS011;67480;48.920;12.880;2023-07-02T05:50:22;4.82;;;2.92;;
78205;SDS011;67480;48.920;12.880;2023-07-02T05:52:48;3.35;;;2.60;;
78205;SDS011;67480;48.920;12.880;2023-07-02T05:55:13;3.55;;;2.63;;
78205;SDS011;67480;48.920;12.880;2023-07-02T05:57:39;3.75;;;2.58;;
78205;SDS011;67480;48.920;12.880;2023-07-02T06:00:05;2.85;;;2.45;;
78205;SDS011;67480;48.920;12.880;2023-07-02T06:02:31;3.33;;;2.80;;
78205;SDS011;67480;48.920;12.880;2023-07-02T06:04:57;3.97;;;2.85;;
78205;SDS011;67480;48.920;12.880;2023-07-02T06:07:23;3.03;;;2.72;;
78205;SDS011;67480;48.920;12.880;2023-07-02T06:09:49;5.93;;;3.10;;
78205;SDS011;67480;48.920;12.880;2023-07-02T06:12:15;3.65;;;2.58;;
78205;SDS011;67480;48.920;12.880;2023-07-02T06:14:42;3.15;;;2.53;;
78205;SDS011;67480;48.920;12.880;2023-07-02T06:17:10;3.05;;;2.72;;
78205;SDS011;67480;48.920;12.880;2023-07-02T06:19:36;3.83;;;2.60;;
78205;SDS011;67480;48.920;12.880;2023-07-02T06:22:02;3.90;;;2.70;;
78205;SDS011;67480;48.920;12.880;2023-07-02T06:24:27;3.80;;;2.88;;
78205;SDS011;67480;48.920;12.880;2023-07-02T06:26:53;5.75;;;2.88;;
78205;SDS011;67480;48.920;12.880;2023-07-02T06:29:18;4.43;;;2.30;;
78205;SDS011;67480;48.920;12.880;2023-07-02T06:31:44;3.00;;;2.63;;
78205;SDS011;67480;48.920;12.880;2023-07-02T06:34:09;2.67;;;2.40;;
78205;SDS011;67480;48.920;12.880;2023-07-02T06:36:34;3.42;;;2.50;;
78205;SDS011;67480;48.920;12.880;2023-07-02T06:39:00;3.40;;;3.10;;
78205;SDS011;67480;48.920;12.880;2023-07-02T06:41:25;3.03;;;2.60;;
78205;SDS011;67480;48.920;12.880;2023-07-02T06:43:51;3.17;;;2.60;;
78205;SDS011;67480;48.920;12.880;2023-07-02T06:46:16;4.20;;;2.58;;
78205;SDS011;67480;48.920;12.880;2023-07-02T06:48:42;3.00;;;2.70;;
78205;SDS011;67480;48.920;12.880;2023-07-02T06:51:10;6.32;;;2.63;;
78205;SDS011;67480;48.920;12.880;2023-07-02T06:53:39;2.80;;;2.20;;
78205;SDS011;67480;48.920;12.880;2023-07-02T06:56:05;3.92;;;2.65;;
78205;SDS011;67480;48.920;12.880;2023-07-02T06:58:33;3.78;;;2.30;;
78205;SDS011;67480;48.920;12.880;2023-07-02T07:01:00;3.05;;;2.50;;
78205;SDS011;67480;48.920;12.880;2023-07-02T07:03:26;2.97;;;2.67;;
78205;SDS011;67480;48.920;12.880;2023-07-02T07:05:51;3.65;;;2.50;;
78205;SDS011;67480;48.920;12.880;2023-07-02T07:08:17;2.97;;;2.70;;
78205;SDS011;67480;48.920;12.880;2023-07-02T07:10:43;4.47;;;2.88;;
78205;SDS011;67480;48.920;12.880;2023-07-02T07:13:10;4.13;;;2.47;;
78205;SDS011;67480;48.920;12.880;2023-07-02T07:15:36;3.05;;;2.40;;
78205;SDS011;67480;48.920;12.880;2023-07-02T07:18:01;3.67;;;2.42;;
78205;SDS011;67480;48.920;12.880;2023-07-02T07:20:27;3.28;;;2.80;;
78205;SDS011;67480;48.920;12.880;2023-07-02T07:22:53;3.38;;;2.60;;
78205;SDS011;67480;48.920;12.880;2023-07-02T07:25:18;3.15;;;2.50;;
78205;SDS011;67480;48.920;12.880;2023-07-02T07:27:44;3.60;;;2.38;;
78205;SDS011;67480;48.920;12.880;2023-07-02T07:30:09;4.57;;;2.33;;
78205;SDS011;67480;48.920;12.880;2023-07-02T07:32:35;4.13;;;2.67;;
78205;SDS011;67480;48.920;12.880;2023-07-02T07:35:01;3.88;;;2.55;;
78205;SDS011;67480;48.920;12.880;2023-07-02T07:37:26;4.82;;;3.03;;
78205;SDS011;67480;48.920;12.880;2023-07-02T07:39:51;5.40;;;2.53;;
78205;SDS011;67480;48.920;12.880;2023-07-02T07:42:17;3.20;;;2.80;;
78205;SDS011;67480;48.920;12.880;2023-07-02T07:44:44;4.57;;;2.92;;
78205;SDS011;67480;48.920;12.880;2023-07-02T07:47:10;5.25;;;2.92;;
78205;SDS011;67480;48.920;12.880;2023-07-02T07:49:36;3.65;;;2.53;;
78205;SDS011;67480;48.920;12.880;2023-07-02T07:52:01;5.25;;;3.25;;
78205;SDS011;67480;48.920;12.880;2023-07-02T07:54:28;4.65;;;3.58;;
78205;SDS011;67480;48.920;12.880;2023-07-02T07:56:53;7.00;;;5.28;;
78205;SDS011;67480;48.920;12.880;2023-07-02T07:59:19;4.90;;;3.55;;
78205;SDS011;67480;48.920;12.880;2023-07-02T08:01:44;7.35;;;3.85;;
78205;SDS011;67480;48.920;12.880;2023-07-02T08:04:11;6.65;;;3.97;;
78205;SDS011;67480;48.920;12.880;2023-07-02T08:06:36;5.43;;;4.03;;
78205;SDS011;67480;48.920;12.880;2023-07-02T08:09:02;7.13;;;3.90;;
78205;SDS011;67480;48.920;12.880;2023-07-02T08:11:28;7.68;;;6.22;;
78205;SDS011;67480;48.920;12.880;2023-07-02T08:13:53;6.95;;;4.75;;
78205;SDS011;67480;48.920;12.880;2023-07-02T08:16:19;6.25;;;4.35;;
78205;SDS011;67480;48.920;12.880;2023-07-02T08:18:44;5.75;;;3.72;;
78205;SDS011;67480;48.920;12.880;2023-07-02T08:21:10;6.80;;;4.15;;
78205;SDS011;67480;48.920;12.880;2023-07-02T08:23:36;7.05;;;4.28;;
78205;SDS011;67480;48.920;12.880;2023-07-02T08:26:01;11.27;;;8.50;;
78205;SDS011;67480;48.920;12.880;2023-07-02T08:28:27;11.20;;;8.05;;
78205;SDS011;67480;48.920;12.880;2023-07-02T08:30:53;10.40;;;7.38;;
78205;SDS011;67480;48.920;12.880;2023-07-02T08:33:18;7.95;;;5.35;;
78205;SDS011;67480;48.920;12.880;2023-07-02T08:35:44;8.27;;;6.35;;
78205;SDS011;67480;48.920;12.880;2023-07-02T08:38:09;9.75;;;4.47;;
78205;SDS011;67480;48.920;12.880;2023-07-02T08:40:34;5.28;;;4.30;;
78205;SDS011;67480;48.920;12.880;2023-07-02T08:43:00;6.47;;;3.90;;
78205;SDS011;67480;48.920;12.880;2023-07-02T08:45:25;7.70;;;4.45;;
78205;SDS011;67480;48.920;12.880;2023-07-02T08:47:51;6.85;;;4.68;;
78205;SDS011;67480;48.920;12.880;2023-07-02T08:50:20;6.47;;;4.15;;
78205;SDS011;67480;48.920;12.880;2023-07-02T08:52:45;8.57;;;4.32;;
78205;SDS011;67480;48.920;12.880;2023-07-02T08:55:10;8.88;;;4.88;;
78205;SDS011;67480;48.920;12.880;2023-07-02T08:57:36;6.13;;;4.25;;
78205;SDS011;67480;48.920;12.880;2023-07-02T09:00:06;6.38;;;5.15;;
78205;SDS011;67480;48.920;12.880;2023-07-02T09:02:34;11.35;;;6.55;;
78205;SDS011;67480;48.920;12.880;2023-07-02T09:05:00;6.18;;;4.50;;
78205;SDS011;67480;48.920;12.880;2023-07-02T09:07:26;11.55;;;5.93;;
78205;SDS011;67480;48.920;12.880;2023-07-02T09:09:51;8.35;;;5.63;;
78205;SDS011;67480;48.920;12.880;2023-07-02T09:12:24;10.10;;;5.53;;
78205;SDS011;67480;48.920;12.880;2023-07-02T09:14:54;11.07;;;6.95;;
78205;SDS011;67480;48.920;12.880;2023-07-02T09:17:20;9.50;;;6.25;;
78205;SDS011;67480;48.920;12.880;2023-07-02T09:19:51;11.43;;;6.65;;
78205;SDS011;67480;48.920;12.880;2023-07-02T09:22:17;11.38;;;6.80;;
78205;SDS011;67480;48.920;12.880;2023-07-02T09:24:50;11.68;;;7.38;;
78205;SDS011;67480;48.920;12.880;2023-07-02T09:27:18;10.48;;;6.95;;
78205;SDS011;67480;48.920;12.880;2023-07-02T09:29:43;10.52;;;6.65;;
78205;SDS011;67480;48.920;12.880;2023-07-02T09:32:22;13.23;;;7.00;;
78205;SDS011;67480;48.920;12.880;2023-07-02T09:34:49;13.15;;;7.63;;
78205;SDS011;67480;48.920;12.880;2023-07-02T09:37:14;15.15;;;7.90;;
78205;SDS011;67480;48.920;12.880;2023-07-02T09:39:40;9.63;;;6.85;;
78205;SDS011;67480;48.920;12.880;2023-07-02T09:42:06;14.10;;;6.93;;
78205;SDS011;67480;48.920;12.880;2023-07-02T09:44:33;14.05;;;7.80;;
78205;SDS011;67480;48.920;12.880;2023-07-02T09:47:02;10.32;;;6.93;;
78205;SDS011;67480;48.920;12.880;2023-07-02T09:49:36;9.77;;;6.63;;
78205;SDS011;67480;48.920;12.880;2023-07-02T09:52:04;9.38;;;6.95;;
78205;SDS011;67480;48.920;12.880;2023-07-02T09:54:34;10.85;;;6.93;;
78205;SDS011;67480;48.920;12.880;2023-07-02T09:57:03;14.15;;;7.35;;
78205;SDS011;67480;48.920;12.880;2023-07-02T10:00:00;12.85;;;7.10;;
78205;SDS011;67480;48.920;12.880;2023-07-02T10:06:23;11.98;;;7.10;;
78205;SDS011;67480;48.920;12.880;2023-07-02T10:09:04;10.23;;;7.63;;
78205;SDS011;67480;48.920;12.880;2023-07-02T10:11:35;11.40;;;7.22;;
78205;SDS011;67480;48.920;12.880;2023-07-02T10:14:01;13.68;;;7.80;;
78205;SDS011;67480;48.920;12.880;2023-07-02T10:16:26;14.48;;;7.30;;
78205;SDS011;67480;48.920;12.880;2023-07-02T10:18:53;13.35;;;7.78;;
78205;SDS011;67480;48.920;12.880;2023-07-02T10:21:19;11.43;;;7.65;;
78205;SDS011;67480;48.920;12.880;2023-07-02T10:23:44;10.80;;;7.40;;
78205;SDS011;67480;48.920;12.880;2023-07-02T10:26:19;10.48;;;7.07;;
78205;SDS011;67480;48.920;12.880;2023-07-02T10:28:57;15.15;;;7.60;;
78205;SDS011;67480;48.920;12.880;2023-07-02T10:31:23;18.25;;;13.35;;
78205;SDS011;67480;48.920;12.880;2023-07-02T10:33:49;10.60;;;7.72;;
78205;SDS011;67480;48.920;12.880;2023-07-02T10:36:18;11.73;;;7.40;;
78205;SDS011;67480;48.920;12.880;2023-07-02T10:38:46;13.23;;;7.80;;
78205;SDS011;67480;48.920;12.880;2023-07-02T10:41:22;12.77;;;7.85;;
78205;SDS011;67480;48.920;12.880;2023-07-02T10:43:54;9.85;;;7.15;;
78205;SDS011;67480;48.920;12.880;2023-07-02T10:46:51;12.00;;;7.97;;
78205;SDS011;67480;48.920;12.880;2023-07-02T10:49:57;10.82;;;7.35;;
78205;SDS011;67480;48.920;12.880;2023-07-02T10:52:24;12.15;;;7.53;;
78205;SDS011;67480;48.920;12.880;2023-07-02T10:54:49;14.35;;;6.97;;
78205;SDS011;67480;48.920;12.880;2023-07-02T10:57:17;11.48;;;7.72;;
78205;SDS011;67480;48.920;12.880;2023-07-02T11:02:41;19.83;;;7.65;;
78205;SDS011;67480;48.920;12.880;2023-07-02T11:05:08;16.45;;;7.45;;
78205;SDS011;67480;48.920;12.880;2023-07-02T11:07:38;11.32;;;7.32;;
78205;SDS011;67480;48.920;12.880;2023-07-02T11:10:06;11.27;;;7.53;;
78205;SDS011;67480;48.920;12.880;2023-07-02T11:12:32;13.00;;;7.72;;
78205;SDS011;67480;48.920;12.880;2023-07-02T11:15:11;11.43;;;7.68;;
78205;SDS011;67480;48.920;12.880;2023-07-02T11:17:39;9.75;;;7.25;;
78205;SDS011;67480;48.920;12.880;2023-07-02T11:20:07;13.45;;;7.60;;
78205;SDS011;67480;48.920;12.880;2023-07-02T11:22:34;10.88;;;8.07;;
78205;SDS011;67480;48.920;12.880;2023-07-02T11:25:10;12.90;;;8.30;;
78205;SDS011;67480;48.920;12.880;2023-07-02T11:27:43;10.20;;;7.47;;
78205;SDS011;67480;48.920;12.880;2023-07-02T11:30:46;13.18;;;7.78;;
78205;SDS011;67480;48.920;12.880;2023-07-02T11:33:13;11.02;;;7.68;;
78205;SDS011;67480;48.920;12.880;2023-07-02T11:38:54;9.95;;;7.25;;
78205;SDS011;67480;48.920;12.880;2023-07-02T11:41:20;11.73;;;7.53;;
78205;SDS011;67480;48.920;12.880;2023-07-02T11:43:46;9.82;;;7.38;;
78205;SDS011;67480;48.920;12.880;2023-07-02T11:46:12;12.18;;;7.95;;
78205;SDS011;67480;48.920;12.880;2023-07-02T11:48:39;16.48;;;7.70;;
78205;SDS011;67480;48.920;12.880;2023-07-02T11:51:04;11.63;;;7.55;;
78205;SDS011;67480;48.920;12.880;2023-07-02T11:53:31;10.82;;;7.20;;
78205;SDS011;67480;48.920;12.880;2023-07-02T11:55:56;11.32;;;7.40;;
78205;SDS011;67480;48.920;12.880;2023-07-02T11:58:21;13.23;;;7.88;;
78205;SDS011;67480;48.920;12.880;2023-07-02T12:00:47;26.40;;;23.35;;
78205;SDS011;67480;48.920;12.880;2023-07-02T12:03:12;12.75;;;9.18;;
78205;SDS011;67480;48.920;12.880;2023-07-02T12:05:42;11.70;;;7.43;;
78205;SDS011;67480;48.920;12.880;2023-07-02T12:08:07;10.90;;;7.82;;
78205;SDS011;67480;48.920;12.880;2023-07-02T12:10:37;12.18;;;8.45;;
78205;SDS011;67480;48.920;12.880;2023-07-02T12:13:04;13.45;;;7.57;;
78205;SDS011;67480;48.920;12.880;2023-07-02T12:15:29;11.38;;;7.65;;
78205;SDS011;67480;48.920;12.880;2023-07-02T12:17:55;11.00;;;7.85;;
78205;SDS011;67480;48.920;12.880;2023-07-02T12:20:20;13.38;;;7.72;;
78205;SDS011;67480;48.920;12.880;2023-07-02T12:22:47;10.13;;;7.30;;
78205;SDS011;67480;48.920;12.880;2023-07-02T12:25:12;10.68;;;7.97;;
78205;SDS011;67480;48.920;12.880;2023-07-02T12:27:37;12.95;;;8.00;;
78205;SDS011;67480;48.920;12.880;2023-07-02T12:30:03;13.18;;;7.93;;
78205;SDS011;67480;48.920;12.880;2023-07-02T12:32:29;11.07;;;7.78;;
78205;SDS011;67480;48.920;12.880;2023-07-02T12:34:55;11.32;;;7.88;;
78205;SDS011;67480;48.920;12.880;2023-07-02T12:37:20;10.45;;;6.85;;
78205;SDS011;67480;48.920;12.880;2023-07-02T12:39:46;12.48;;;7.30;;
78205;SDS011;67480;48.920;12.880;2023-07-02T12:42:12;11.20;;;7.68;;
78205;SDS011;67480;48.920;12.880;2023-07-02T12:44:38;11.45;;;7.53;;
78205;SDS011;67480;48.920;12.880;2023-07-02T12:47:07;16.88;;;7.80;;
78205;SDS011;67480;48.920;12.880;2023-07-02T12:49:33;10.05;;;7.50;;
78205;SDS011;67480;48.920;12.880;2023-07-02T12:51:59;10.75;;;7.78;;
78205;SDS011;67480;48.920;12.880;2023-07-02T12:54:24;12.63;;;7.82;;
78205;SDS011;67480;48.920;12.880;2023-07-02T12:56:52;11.02;;;7.32;;
78205;SDS011;67480;48.920;12.880;2023-07-02T12:59:17;12.48;;;7.97;;
78205;SDS011;67480;48.920;12.880;2023-07-02T13:01:44;10.52;;;7.68;;
78205;SDS011;67480;48.920;12.880;2023-07-02T13:04:09;14.70;;;7.78;;
78205;SDS011;67480;48.920;12.880;2023-07-02T13:06:34;10.80;;;7.47;;
78205;SDS011;67480;48.920;12.880;2023-07-02T13:09:05;10.27;;;8.05;;
78205;SDS011;67480;48.920;12.880;2023-07-02T13:11:30;12.55;;;7.53;;
78205;SDS011;67480;48.920;12.880;2023-07-02T13:13:56;11.63;;;8.52;;
78205;SDS011;67480;48.920;12.880;2023-07-02T13:16:21;12.25;;;8.27;;
78205;SDS011;67480;48.920;12.880;2023-07-02T13:18:46;12.63;;;8.20;;
78205;SDS011;67480;48.920;12.880;2023-07-02T13:21:13;13.93;;;8.07;;
78205;SDS011;67480;48.920;12.880;2023-07-02T13:23:58;14.10;;;8.27;;
78205;SDS011;67480;48.920;12.880;2023-07-02T13:26:51;12.52;;;8.25;;
78205;SDS011;67480;48.920;12.880;2023-07-02T13:29:27;12.13;;;8.18;;
78205;SDS011;67480;48.920;12.880;2023-07-02T13:48:45;12.35;;;8.90;;
78205;SDS011;67480;48.920;12.880;2023-07-02T13:51:12;12.20;;;7.55;;
78205;SDS011;67480;48.920;12.880;2023-07-02T13:53:42;11.20;;;7.78;;
78205;SDS011;67480;48.920;12.880;2023-07-02T13:56:09;12.63;;;7.72;;
78205;SDS011;67480;48.920;12.880;2023-07-02T13:58:58;11.65;;;7.85;;
78205;SDS011;67480;48.920;12.880;2023-07-02T14:01:25;12.18;;;7.75;;
78205;SDS011;67480;48.920;12.880;2023-07-02T14:03:59;12.40;;;8.40;;
78205;SDS011;67480;48.920;12.880;2023-07-02T14:06:26;11.60;;;7.13;;
78205;SDS011;67480;48.920;12.880;2023-07-02T14:08:51;11.65;;;8.20;;
78205;SDS011;67480;48.920;12.880;2023-07-02T14:11:17;12.05;;;7.97;;
78205;SDS011;67480;48.920;12.880;2023-07-02T14:13:44;13.13;;;8.02;;
78205;SDS011;67480;48.920;12.880;2023-07-02T14:16:10;11.20;;;7.85;;
78205;SDS011;67480;48.920;12.880;2023-07-02T14:18:35;15.05;;;7.88;;
78205;SDS011;67480;48.920;12.880;2023-07-02T14:26:54;10.60;;;7.40;;
78205;SDS011;67480;48.920;12.880;2023-07-02T14:29:50;11.15;;;8.02;;
78205;SDS011;67480;48.920;12.880;2023-07-02T14:32:25;11.60;;;7.45;;
78205;SDS011;67480;48.920;12.880;2023-07-02T14:34:51;13.35;;;10.15;;
78205;SDS011;67480;48.920;12.880;2023-07-02T14:37:17;16.88;;;14.43;;
78205;SDS011;67480;48.920;12.880;2023-07-02T14:39:42;12.35;;;7.90;;
78205;SDS011;67480;48.920;12.880;2023-07-02T14:42:07;10.88;;;8.00;;
78205;SDS011;67480;48.920;12.880;2023-07-02T14:44:33;10.73;;;7.57;;
78205;SDS011;67480;48.920;12.880;2023-07-02T14:46:58;10.82;;;7.30;;
78205;SDS011;67480;48.920;12.880;2023-07-02T14:49:23;12.98;;;8.75;;
78205;SDS011;67480;48.920;12.880;2023-07-02T14:51:49;12.35;;;7.90;;
78205;SDS011;67480;48.920;12.880;2023-07-02T14:54:15;11.63;;;7.55;;
78205;SDS011;67480;48.920;12.880;2023-07-02T14:56:43;11.90;;;7.70;;
78205;SDS011;67480;48.920;12.880;2023-07-02T14:59:08;14.05;;;7.97;;
78205;SDS011;67480;48.920;12.880;2023-07-02T15:01:34;13.82;;;10.23;;
78205;SDS011;67480;48.920;12.880;2023-07-02T15:03:59;17.65;;;13.82;;
78205;SDS011;67480;48.920;12.880;2023-07-02T15:06:25;15.52;;;7.57;;